createdAt,value
2018-06-23T00:00:44.439Z,1022.33
2018-06-23T00:01:44.449Z,1022.35
2018-06-23T00:02:44.640Z,1022.36
2018-06-23T00:03:44.650Z,1022.38
2018-06-23T00:04:44.465Z,1022.38
2018-06-23T00:05:44.462Z,1022.35
2018-06-23T00:06:44.452Z,1022.35
2018-06-23T00:07:44.447Z,1022.33
2018-06-23T00:08:44.437Z,1022.28
2018-06-23T00:09:44.450Z,1022.29
2018-06-23T00:10:44.440Z,1022.31
2018-06-23T00:11:44.451Z,1022.26
2018-06-23T00:12:44.645Z,1022.28
2018-06-23T00:13:44.640Z,1022.21
2018-06-23T00:14:44.449Z,1022.23
2018-06-23T00:15:44.639Z,1022.23
2018-06-23T00:16:44.640Z,1022.20
2018-06-23T00:17:44.641Z,1022.23
2018-06-23T00:18:44.438Z,1022.23
2018-06-23T00:19:44.437Z,1022.27
2018-06-23T00:20:44.437Z,1022.26
2018-06-23T00:21:44.450Z,1022.21
2018-06-23T00:22:44.437Z,1022.25
2018-06-23T00:23:44.437Z,1022.23
2018-06-23T00:24:44.437Z,1022.20
2018-06-23T00:25:44.438Z,1022.25
2018-06-23T00:26:44.448Z,1022.25
2018-06-23T00:27:44.454Z,1022.27
2018-06-23T00:28:44.438Z,1022.27
2018-06-23T00:29:44.450Z,1022.28
2018-06-23T00:30:44.441Z,1022.26
2018-06-23T00:31:44.656Z,1022.27
2018-06-23T00:32:44.638Z,1022.25
2018-06-23T00:33:44.436Z,1022.22
2018-06-23T00:34:44.435Z,1022.25
2018-06-23T00:35:44.435Z,1022.24
2018-06-23T00:36:44.449Z,1022.24
2018-06-23T00:37:44.461Z,1022.23
2018-06-23T00:38:44.436Z,1022.25
2018-06-23T00:39:44.636Z,1022.25
2018-06-23T00:40:44.445Z,1022.26
2018-06-23T00:41:44.438Z,1022.25
2018-06-23T00:42:44.436Z,1022.26
2018-06-23T00:43:44.432Z,1022.29
2018-06-23T00:44:44.437Z,1022.27
2018-06-23T00:45:44.435Z,1022.22
2018-06-23T00:46:44.443Z,1022.21
2018-06-23T00:47:44.443Z,1022.20
2018-06-23T00:48:44.635Z,1022.23
2018-06-23T00:49:44.638Z,1022.20
2018-06-23T00:50:44.432Z,1022.21
2018-06-23T00:51:44.431Z,1022.19
2018-06-23T00:52:44.434Z,1022.23
2018-06-23T00:53:44.432Z,1022.23
2018-06-23T00:54:44.442Z,1022.24
2018-06-23T00:55:44.432Z,1022.22
2018-06-23T00:56:44.459Z,1022.23
2018-06-23T00:57:44.456Z,1022.24
2018-06-23T00:58:44.432Z,1022.26
2018-06-23T00:59:44.431Z,1022.28
2018-06-23T01:00:44.432Z,1022.27
2018-06-23T01:01:44.432Z,1022.30
2018-06-23T01:02:44.655Z,1022.31
2018-06-23T01:03:44.455Z,1022.29
2018-06-23T01:04:44.635Z,1022.26
2018-06-23T01:05:44.631Z,1022.25
2018-06-23T01:06:44.631Z,1022.22
2018-06-23T01:07:44.429Z,1022.21
2018-06-23T01:08:44.428Z,1022.21
2018-06-23T01:09:44.429Z,1022.22
2018-06-23T01:10:44.636Z,1022.23
2018-06-23T01:11:44.627Z,1022.23
2018-06-23T01:12:44.438Z,1022.21
2018-06-23T01:13:44.432Z,1022.22
2018-06-23T01:14:44.441Z,1022.18
2018-06-23T01:15:44.636Z,1022.18
2018-06-23T01:16:44.647Z,1022.23
2018-06-23T01:17:44.427Z,1022.22
2018-06-23T01:18:44.435Z,1022.22
2018-06-23T01:19:44.425Z,1022.19
2018-06-23T01:20:44.424Z,1022.26
2018-06-23T01:21:44.424Z,1022.23
2018-06-23T01:22:44.631Z,1022.21
2018-06-23T01:23:44.437Z,1022.24
2018-06-23T01:24:44.625Z,1022.27
2018-06-23T01:25:44.423Z,1022.29
2018-06-23T01:26:44.423Z,1022.29
2018-06-23T01:27:44.622Z,1022.32
2018-06-23T01:28:44.431Z,1022.31
2018-06-23T01:29:44.623Z,1022.34
2018-06-23T01:30:44.421Z,1022.32
2018-06-23T01:31:44.420Z,1022.28
2018-06-23T01:32:44.429Z,1022.30
2018-06-23T01:33:44.435Z,1022.31
2018-06-23T01:34:44.630Z,1022.31
2018-06-23T01:35:44.434Z,1022.30
2018-06-23T01:36:44.418Z,1022.31
2018-06-23T01:37:44.623Z,1022.29
2018-06-23T01:38:44.426Z,1022.32
2018-06-23T01:39:44.425Z,1022.30
2018-06-23T01:40:44.414Z,1022.33
2018-06-23T01:41:44.425Z,1022.33
2018-06-23T01:42:44.415Z,1022.29
2018-06-23T01:43:44.414Z,1022.27
2018-06-23T01:44:44.422Z,1022.25
2018-06-23T01:45:44.413Z,1022.24
2018-06-23T01:46:44.413Z,1022.24
2018-06-23T01:47:44.421Z,1022.22
2018-06-23T01:48:44.411Z,1022.25
2018-06-23T01:49:44.412Z,1022.23
2018-06-23T01:50:44.409Z,1022.26
2018-06-23T01:51:44.409Z,1022.26
2018-06-23T01:52:44.613Z,1022.25
2018-06-23T01:53:44.409Z,1022.29
2018-06-23T01:54:44.411Z,1022.27
2018-06-23T01:55:44.408Z,1022.28
2018-06-23T01:56:44.423Z,1022.31
2018-06-23T01:57:44.610Z,1022.30
2018-06-23T01:58:44.407Z,1022.27
2018-06-23T01:59:44.405Z,1022.25
2018-06-23T02:00:44.417Z,1022.22
2018-06-23T02:01:44.417Z,1022.21
2018-06-23T02:02:44.404Z,1022.22
2018-06-23T02:03:44.676Z,1022.24
2018-06-23T02:04:44.419Z,1022.23
2018-06-23T02:05:44.404Z,1022.21
2018-06-23T02:06:44.405Z,1022.20
2018-06-23T02:07:44.402Z,1022.20
2018-06-23T02:08:44.402Z,1022.19
2018-06-23T02:09:44.400Z,1022.19
2018-06-23T02:10:44.399Z,1022.23
2018-06-23T02:11:44.400Z,1022.17
2018-06-23T02:12:44.402Z,1022.17
2018-06-23T02:13:44.399Z,1022.15
2018-06-23T02:14:44.601Z,1022.20
2018-06-23T02:15:44.400Z,1022.21
2018-06-23T02:16:44.613Z,1022.16
2018-06-23T02:17:44.399Z,1022.14
2018-06-23T02:18:44.398Z,1022.15
2018-06-23T02:19:44.398Z,1022.16
2018-06-23T02:20:44.394Z,1022.14
2018-06-23T02:21:44.398Z,1022.16
2018-06-23T02:22:44.417Z,1022.16
2018-06-23T02:23:44.393Z,1022.17
2018-06-23T02:24:44.395Z,1022.18
2018-06-23T02:25:44.596Z,1022.14
2018-06-23T02:26:44.399Z,1022.14
2018-06-23T02:27:44.405Z,1022.18
2018-06-23T02:28:44.404Z,1022.21
2018-06-23T02:29:44.419Z,1022.21
2018-06-23T02:30:44.410Z,1022.21
2018-06-23T02:31:44.396Z,1022.22
2018-06-23T02:32:44.605Z,1022.23
2018-06-23T02:33:44.405Z,1022.20
2018-06-23T02:34:44.390Z,1022.17
2018-06-23T02:35:44.389Z,1022.18
2018-06-23T02:36:44.389Z,1022.14
2018-06-23T02:37:44.402Z,1022.13
2018-06-23T02:38:44.590Z,1022.13
2018-06-23T02:39:44.388Z,1022.15
2018-06-23T02:40:44.405Z,1022.12
2018-06-23T02:41:44.394Z,1022.12
2018-06-23T02:42:44.390Z,1022.13
2018-06-23T02:43:44.386Z,1022.14
2018-06-23T02:44:44.393Z,1022.17
2018-06-23T02:45:44.392Z,1022.15
2018-06-23T02:46:44.599Z,1022.19
2018-06-23T02:47:44.581Z,1022.19
2018-06-23T02:48:44.410Z,1022.23
2018-06-23T02:49:44.596Z,1022.22
2018-06-23T02:50:44.391Z,1022.20
2018-06-23T02:51:44.389Z,1022.21
2018-06-23T02:52:44.389Z,1022.19
2018-06-23T02:53:44.390Z,1022.21
2018-06-23T02:54:44.392Z,1022.19
2018-06-23T02:55:44.393Z,1022.22
2018-06-23T02:56:44.376Z,1022.24
2018-06-23T02:57:44.392Z,1022.26
2018-06-23T02:58:44.576Z,1022.31
2018-06-23T02:59:44.377Z,1022.31
2018-06-23T03:00:44.375Z,1022.34
2018-06-23T03:01:44.422Z,1022.29
2018-06-23T03:02:44.399Z,1022.29
2018-06-23T03:03:44.600Z,1022.26
2018-06-23T03:04:44.373Z,1022.23
2018-06-23T03:05:44.403Z,1022.25
2018-06-23T03:06:44.370Z,1022.30
2018-06-23T03:07:44.381Z,1022.29
2018-06-23T03:08:44.582Z,1022.28
2018-06-23T03:09:44.380Z,1022.30
2018-06-23T03:10:44.587Z,1022.27
2018-06-23T03:11:44.379Z,1022.25
2018-06-23T03:12:44.567Z,1022.27
2018-06-23T03:13:44.366Z,1022.25
2018-06-23T03:14:44.434Z,1022.25
2018-06-23T03:15:44.364Z,1022.26
2018-06-23T03:16:44.367Z,1022.33
2018-06-23T03:17:44.378Z,1022.31
2018-06-23T03:18:44.380Z,1022.29
2018-06-23T03:19:44.361Z,1022.31
2018-06-23T03:20:44.372Z,1022.31
2018-06-23T03:21:44.375Z,1022.32
2018-06-23T03:22:44.372Z,1022.35
2018-06-23T03:23:44.359Z,1022.30
2018-06-23T03:24:44.563Z,1022.30
2018-06-23T03:25:44.371Z,1022.31
2018-06-23T03:26:44.369Z,1022.34
2018-06-23T03:27:44.355Z,1022.31
2018-06-23T03:28:44.365Z,1022.34
2018-06-23T03:29:44.366Z,1022.31
2018-06-23T03:30:44.353Z,1022.28
2018-06-23T03:31:44.387Z,1022.31
2018-06-23T03:32:44.353Z,1022.30
2018-06-23T03:33:44.355Z,1022.27
2018-06-23T03:34:44.354Z,1022.31
2018-06-23T03:35:44.350Z,1022.30
2018-06-23T03:36:44.363Z,1022.34
2018-06-23T03:37:44.348Z,1022.37
2018-06-23T03:38:44.365Z,1022.43
2018-06-23T03:39:44.367Z,1022.44
2018-06-23T03:40:44.357Z,1022.46
2018-06-23T03:41:44.346Z,1022.46
2018-06-23T03:42:44.546Z,1022.45
2018-06-23T03:43:44.423Z,1022.47
2018-06-23T03:44:44.371Z,1022.45
2018-06-23T03:45:44.545Z,1022.45
2018-06-23T03:46:44.360Z,1022.49
2018-06-23T03:47:44.341Z,1022.49
2018-06-23T03:48:44.342Z,1022.44
2018-06-23T03:49:44.341Z,1022.44
2018-06-23T03:50:44.352Z,1022.46
2018-06-23T03:51:44.340Z,1022.44
2018-06-23T03:52:44.353Z,1022.44
2018-06-23T03:53:44.539Z,1022.41
2018-06-23T03:54:44.336Z,1022.42
2018-06-23T03:55:44.345Z,1022.44
2018-06-23T03:56:44.544Z,1022.41
2018-06-23T03:57:44.363Z,1022.40
2018-06-23T03:58:44.335Z,1022.44
2018-06-23T03:59:44.341Z,1022.47
2018-06-23T04:00:44.344Z,1022.46
2018-06-23T04:01:44.343Z,1022.42
2018-06-23T04:02:44.353Z,1022.42
2018-06-23T04:03:44.545Z,1022.41
2018-06-23T04:04:44.359Z,1022.42
2018-06-23T04:05:44.340Z,1022.45
2018-06-23T04:06:44.340Z,1022.43
2018-06-23T04:07:44.341Z,1022.46
2018-06-23T04:08:44.340Z,1022.40
2018-06-23T04:09:44.327Z,1022.40
2018-06-23T04:10:44.324Z,1022.40
2018-06-23T04:11:44.322Z,1022.45
2018-06-23T04:12:44.343Z,1022.40
2018-06-23T04:13:44.323Z,1022.40
2018-06-23T04:14:44.324Z,1022.44
2018-06-23T04:15:44.321Z,1022.44
2018-06-23T04:16:44.356Z,1022.43
2018-06-23T04:17:44.321Z,1022.45
2018-06-23T04:18:44.330Z,1022.46
2018-06-23T04:19:44.329Z,1022.51
2018-06-23T04:20:44.334Z,1022.49
2018-06-23T04:21:44.323Z,1022.48
2018-06-23T04:22:44.317Z,1022.49
2018-06-23T04:23:44.316Z,1022.52
2018-06-23T04:24:44.519Z,1022.53
2018-06-23T04:25:44.328Z,1022.54
2018-06-23T04:26:44.526Z,1022.56
2018-06-23T04:27:44.323Z,1022.53
2018-06-23T04:28:44.313Z,1022.55
2018-06-23T04:29:44.313Z,1022.53
2018-06-23T04:30:44.312Z,1022.56
2018-06-23T04:31:44.322Z,1022.52
2018-06-23T04:32:44.314Z,1022.53
2018-06-23T04:33:44.311Z,1022.53
2018-06-23T04:34:44.324Z,1022.56
2018-06-23T04:35:44.320Z,1022.52
2018-06-23T04:36:44.519Z,1022.54
2018-06-23T04:37:44.320Z,1022.48
2018-06-23T04:38:44.309Z,1022.47
2018-06-23T04:39:44.319Z,1022.44
2018-06-23T04:40:44.517Z,1022.48
2018-06-23T04:41:44.306Z,1022.48
2018-06-23T04:42:44.316Z,1022.49
2018-06-23T04:43:44.304Z,1022.48
2018-06-23T04:44:44.302Z,1022.52
2018-06-23T04:45:44.305Z,1022.46
2018-06-23T04:46:44.304Z,1022.43
2018-06-23T04:47:44.300Z,1022.43
2018-06-23T04:48:44.312Z,1022.40
2018-06-23T04:49:44.311Z,1022.38
2018-06-23T04:50:44.301Z,1022.42
2018-06-23T04:51:44.309Z,1022.40
2018-06-23T04:52:44.309Z,1022.38
2018-06-23T04:53:44.326Z,1022.38
2018-06-23T04:54:44.297Z,1022.43
2018-06-23T04:55:44.305Z,1022.43
2018-06-23T04:56:44.306Z,1022.43
2018-06-23T04:57:44.305Z,1022.41
2018-06-23T04:58:44.326Z,1022.43
2018-06-23T04:59:44.308Z,1022.38
2018-06-23T05:00:44.312Z,1022.41
2018-06-23T05:01:44.293Z,1022.39
2018-06-23T05:02:44.302Z,1022.40
2018-06-23T05:03:44.349Z,1022.38
2018-06-23T05:04:44.293Z,1022.39
2018-06-23T05:05:44.305Z,1022.43
2018-06-23T05:06:44.306Z,1022.47
2018-06-23T05:07:44.289Z,1022.47
2018-06-23T05:08:44.497Z,1022.48
2018-06-23T05:09:44.310Z,1022.46
2018-06-23T05:10:44.500Z,1022.47
2018-06-23T05:11:44.284Z,1022.47
2018-06-23T05:12:44.285Z,1022.44
2018-06-23T05:13:44.285Z,1022.46
2018-06-23T05:14:44.284Z,1022.41
2018-06-23T05:15:44.296Z,1022.43
2018-06-23T05:16:44.294Z,1022.44
2018-06-23T05:17:44.284Z,1022.44
2018-06-23T05:18:44.496Z,1022.46
2018-06-23T05:19:44.293Z,1022.47
2018-06-23T05:20:44.298Z,1022.48
2018-06-23T05:21:44.284Z,1022.49
2018-06-23T05:22:44.284Z,1022.47
2018-06-23T05:23:44.292Z,1022.45
2018-06-23T05:24:44.482Z,1022.41
2018-06-23T05:25:44.278Z,1022.39
2018-06-23T05:26:44.278Z,1022.36
2018-06-23T05:27:44.290Z,1022.39
2018-06-23T05:28:44.278Z,1022.38
2018-06-23T05:29:44.288Z,1022.36
2018-06-23T05:30:44.279Z,1022.36
2018-06-23T05:31:44.348Z,1022.39
2018-06-23T05:32:44.276Z,1022.42
2018-06-23T05:33:44.479Z,1022.39
2018-06-23T05:34:44.505Z,1022.38
2018-06-23T05:35:44.275Z,1022.43
2018-06-23T05:36:44.480Z,1022.43
2018-06-23T05:37:44.304Z,1022.43
2018-06-23T05:38:44.286Z,1022.47
2018-06-23T05:39:44.475Z,1022.44
2018-06-23T05:40:44.276Z,1022.48
2018-06-23T05:41:44.275Z,1022.49
2018-06-23T05:42:44.287Z,1022.51
2018-06-23T05:43:44.271Z,1022.45
2018-06-23T05:44:44.354Z,1022.47
2018-06-23T05:45:44.273Z,1022.46
2018-06-23T05:46:44.299Z,1022.46
2018-06-23T05:47:44.271Z,1022.45
2018-06-23T05:48:44.269Z,1022.47
2018-06-23T05:49:44.270Z,1022.43
2018-06-23T05:50:44.282Z,1022.47
2018-06-23T05:51:44.279Z,1022.49
2018-06-23T05:52:44.270Z,1022.53
2018-06-23T05:53:44.268Z,1022.48
2018-06-23T05:54:44.277Z,1022.52
2018-06-23T05:55:44.266Z,1022.54
2018-06-23T05:56:44.277Z,1022.54
2018-06-23T05:57:44.264Z,1022.49
2018-06-23T05:58:44.268Z,1022.49
2018-06-23T05:59:44.264Z,1022.49
2018-06-23T06:00:44.329Z,1022.48
2018-06-23T06:01:44.265Z,1022.48
2018-06-23T06:02:44.279Z,1022.49
2018-06-23T06:03:44.465Z,1022.47
2018-06-23T06:04:44.274Z,1022.44
2018-06-23T06:05:44.274Z,1022.47
2018-06-23T06:06:44.265Z,1022.43
2018-06-23T06:07:44.262Z,1022.40
2018-06-23T06:08:44.261Z,1022.38
2018-06-23T06:09:44.287Z,1022.39
2018-06-23T06:10:44.276Z,1022.40
2018-06-23T06:11:44.296Z,1022.39
2018-06-23T06:12:44.460Z,1022.37
2018-06-23T06:13:44.262Z,1022.36
2018-06-23T06:14:44.265Z,1022.36
2018-06-23T06:15:44.268Z,1022.38
2018-06-23T06:16:44.257Z,1022.41
2018-06-23T06:17:44.459Z,1022.44
2018-06-23T06:18:44.255Z,1022.43
2018-06-23T06:19:44.275Z,1022.44
2018-06-23T06:20:44.270Z,1022.49
2018-06-23T06:21:44.266Z,1022.52
2018-06-23T06:22:44.269Z,1022.49
2018-06-23T06:23:44.295Z,1022.50
2018-06-23T06:24:44.455Z,1022.48
2018-06-23T06:25:44.254Z,1022.49
2018-06-23T06:26:44.458Z,1022.51
2018-06-23T06:27:44.255Z,1022.55
2018-06-23T06:28:44.251Z,1022.55
2018-06-23T06:29:44.251Z,1022.56
2018-06-23T06:30:44.281Z,1022.53
2018-06-23T06:31:44.251Z,1022.56
2018-06-23T06:32:44.255Z,1022.57
2018-06-23T06:33:44.249Z,1022.63
2018-06-23T06:34:44.250Z,1022.63
2018-06-23T06:35:44.300Z,1022.61
2018-06-23T06:36:44.267Z,1022.57
2018-06-23T06:37:44.255Z,1022.54
2018-06-23T06:38:44.273Z,1022.57
2018-06-23T06:39:44.248Z,1022.55
2018-06-23T06:40:44.449Z,1022.56
2018-06-23T06:41:44.247Z,1022.60
2018-06-23T06:42:44.264Z,1022.59
2018-06-23T06:43:44.256Z,1022.61
2018-06-23T06:44:44.250Z,1022.62
2018-06-23T06:45:44.258Z,1022.64
2018-06-23T06:46:44.257Z,1022.62
2018-06-23T06:47:44.249Z,1022.62
2018-06-23T06:48:44.274Z,1022.65
2018-06-23T06:49:44.248Z,1022.62
2018-06-23T06:50:44.263Z,1022.62
2018-06-23T06:51:44.245Z,1022.61
2018-06-23T06:52:44.259Z,1022.63
2018-06-23T06:53:44.259Z,1022.61
2018-06-23T06:54:44.242Z,1022.62
2018-06-23T06:55:44.243Z,1022.65
2018-06-23T06:56:44.263Z,1022.64
2018-06-23T06:57:44.239Z,1022.62
2018-06-23T06:58:44.239Z,1022.63
2018-06-23T06:59:44.468Z,1022.66
2018-06-23T07:00:44.445Z,1022.65
2018-06-23T07:01:44.270Z,1022.68
2018-06-23T07:02:44.241Z,1022.68
2018-06-23T07:03:44.259Z,1022.70
2018-06-23T07:04:44.277Z,1022.68
2018-06-23T07:05:44.241Z,1022.73
2018-06-23T07:06:44.239Z,1022.75
2018-06-23T07:07:44.246Z,1022.72
2018-06-23T07:08:44.244Z,1022.71
2018-06-23T07:09:44.249Z,1022.66
2018-06-23T07:10:44.243Z,1022.69
2018-06-23T07:11:44.233Z,1022.67
2018-06-23T07:12:44.247Z,1022.66
2018-06-23T07:13:44.235Z,1022.66
2018-06-23T07:14:44.247Z,1022.63
2018-06-23T07:15:44.231Z,1022.65
2018-06-23T07:16:44.245Z,1022.64
2018-06-23T07:17:44.291Z,1022.66
2018-06-23T07:18:44.234Z,1022.66
2018-06-23T07:19:44.241Z,1022.69
2018-06-23T07:20:44.228Z,1022.69
2018-06-23T07:21:44.242Z,1022.66
2018-06-23T07:22:44.258Z,1022.69
2018-06-23T07:23:44.327Z,1022.66
2018-06-23T07:24:44.440Z,1022.71
2018-06-23T07:25:44.225Z,1022.67
2018-06-23T07:26:44.225Z,1022.66
2018-06-23T07:27:44.429Z,1022.65
2018-06-23T07:28:44.225Z,1022.65
2018-06-23T07:29:44.236Z,1022.68
2018-06-23T07:30:44.284Z,1022.66
2018-06-23T07:31:44.245Z,1022.67
2018-06-23T07:32:44.240Z,1022.71
2018-06-23T07:33:44.223Z,1022.67
2018-06-23T07:34:44.309Z,1022.71
2018-06-23T07:35:44.222Z,1022.68
2018-06-23T07:36:44.224Z,1022.65
2018-06-23T07:37:44.237Z,1022.61
2018-06-23T07:38:44.423Z,1022.60
2018-06-23T07:39:44.225Z,1022.58
2018-06-23T07:40:44.236Z,1022.56
2018-06-23T07:41:44.219Z,1022.55
2018-06-23T07:42:44.250Z,1022.53
2018-06-23T07:43:44.229Z,1022.55
2018-06-23T07:44:44.220Z,1022.54
2018-06-23T07:45:44.233Z,1022.51
2018-06-23T07:46:44.234Z,1022.52
2018-06-23T07:47:44.219Z,1022.54
2018-06-23T07:48:44.239Z,1022.50
2018-06-23T07:49:44.231Z,1022.49
2018-06-23T07:50:44.222Z,1022.51
2018-06-23T07:51:44.228Z,1022.50
2018-06-23T07:52:44.228Z,1022.47
2018-06-23T07:53:44.227Z,1022.45
2018-06-23T07:54:44.248Z,1022.48
2018-06-23T07:55:44.215Z,1022.44
2018-06-23T07:56:44.229Z,1022.45
2018-06-23T07:57:44.418Z,1022.49
2018-06-23T07:58:44.226Z,1022.47
2018-06-23T07:59:44.220Z,1022.48
2018-06-23T08:00:44.231Z,1022.48
2018-06-23T08:01:44.316Z,1022.52
2018-06-23T08:02:44.219Z,1022.50
2018-06-23T08:03:44.230Z,1022.54
2018-06-23T08:04:44.215Z,1022.52
2018-06-23T08:05:44.226Z,1022.54
2018-06-23T08:06:44.218Z,1022.53
2018-06-23T08:07:44.214Z,1022.53
2018-06-23T08:08:44.231Z,1022.45
2018-06-23T08:09:44.215Z,1022.43
2018-06-23T08:10:44.226Z,1022.40
2018-06-23T08:11:44.266Z,1022.39
2018-06-23T08:12:44.214Z,1022.39
2018-06-23T08:13:44.231Z,1022.36
2018-06-23T08:14:44.228Z,1022.34
2018-06-23T08:15:44.240Z,1022.36
2018-06-23T08:16:44.219Z,1022.32
2018-06-23T08:17:44.227Z,1022.33
2018-06-23T08:18:44.216Z,1022.28
2018-06-23T08:19:44.218Z,1022.28
2018-06-23T08:20:44.216Z,1022.31
2018-06-23T08:21:44.231Z,1022.27
2018-06-23T08:22:44.218Z,1022.24
2018-06-23T08:23:44.229Z,1022.23
2018-06-23T08:24:44.217Z,1022.26
2018-06-23T08:25:44.230Z,1022.25
2018-06-23T08:26:44.533Z,1022.27
2018-06-23T08:27:44.233Z,1022.31
2018-06-23T08:28:44.246Z,1022.30
2018-06-23T08:29:44.218Z,1022.29
2018-06-23T08:30:44.421Z,1022.36
2018-06-23T08:31:44.249Z,1022.32
2018-06-23T08:32:44.232Z,1022.26
2018-06-23T08:33:44.222Z,1022.26
2018-06-23T08:34:44.230Z,1022.29
2018-06-23T08:35:44.221Z,1022.33
2018-06-23T08:36:44.230Z,1022.35
2018-06-23T08:37:44.257Z,1022.33
2018-06-23T08:38:44.233Z,1022.31
2018-06-23T08:39:44.223Z,1022.30
2018-06-23T08:40:44.441Z,1022.32
2018-06-23T08:41:44.221Z,1022.33
2018-06-23T08:42:44.224Z,1022.33
2018-06-23T08:43:44.287Z,1022.37
2018-06-23T08:44:44.221Z,1022.34
2018-06-23T08:45:44.237Z,1022.31
2018-06-23T08:46:44.249Z,1022.33
2018-06-23T08:47:44.235Z,1022.32
2018-06-23T08:48:44.224Z,1022.33
2018-06-23T08:49:44.225Z,1022.34
2018-06-23T08:50:44.228Z,1022.34
2018-06-23T08:51:44.238Z,1022.38
2018-06-23T08:52:44.225Z,1022.38
2018-06-23T08:53:44.225Z,1022.37
2018-06-23T08:54:44.224Z,1022.38
2018-06-23T08:55:44.256Z,1022.33
2018-06-23T08:56:44.226Z,1022.34
2018-06-23T08:57:44.430Z,1022.34
2018-06-23T08:58:44.247Z,1022.35
2018-06-23T08:59:44.426Z,1022.35
2018-06-23T09:00:44.229Z,1022.31
2018-06-23T09:01:44.241Z,1022.32
2018-06-23T09:02:44.236Z,1022.32
2018-06-23T09:03:44.244Z,1022.33
2018-06-23T09:04:44.228Z,1022.29
2018-06-23T09:05:44.444Z,1022.30
2018-06-23T09:06:44.240Z,1022.26
2018-06-23T09:07:44.240Z,1022.25
2018-06-23T09:08:44.244Z,1022.25
2018-06-23T09:09:44.243Z,1022.23
2018-06-23T09:10:44.230Z,1022.22
2018-06-23T09:11:44.229Z,1022.19
2018-06-23T09:12:44.234Z,1022.16
2018-06-23T09:13:44.296Z,1022.11
2018-06-23T09:14:44.447Z,1022.09
2018-06-23T09:15:44.247Z,1022.12
2018-06-23T09:16:44.275Z,1022.14
2018-06-23T09:17:44.232Z,1022.10
2018-06-23T09:18:44.235Z,1022.07
2018-06-23T09:19:44.237Z,1022.10
2018-06-23T09:20:44.248Z,1022.10
2018-06-23T09:21:44.265Z,1022.11
2018-06-23T09:22:44.237Z,1022.10
2018-06-23T09:23:44.237Z,1022.08
2018-06-23T09:24:44.239Z,1022.11
2018-06-23T09:25:44.277Z,1022.12
2018-06-23T09:26:44.439Z,1022.12
2018-06-23T09:27:44.235Z,1022.14
2018-06-23T09:28:44.236Z,1022.09
2018-06-23T09:29:44.248Z,1022.12
2018-06-23T09:30:44.253Z,1022.09
2018-06-23T09:31:44.252Z,1022.09
2018-06-23T09:32:44.252Z,1022.11
2018-06-23T09:33:44.240Z,1022.13
2018-06-23T09:34:44.255Z,1022.14
2018-06-23T09:35:44.251Z,1022.17
2018-06-23T09:36:44.242Z,1022.13
2018-06-23T09:37:44.243Z,1022.16
2018-06-23T09:38:44.242Z,1022.16
2018-06-23T09:39:44.241Z,1022.15
2018-06-23T09:40:44.243Z,1022.12
2018-06-23T09:41:44.240Z,1022.09
2018-06-23T09:42:44.242Z,1022.10
2018-06-23T09:43:44.252Z,1022.12
2018-06-23T09:44:44.267Z,1022.12
2018-06-23T09:45:44.259Z,1022.12
2018-06-23T09:46:44.244Z,1022.11
2018-06-23T09:47:44.254Z,1022.11
2018-06-23T09:48:44.260Z,1022.11
2018-06-23T09:49:44.261Z,1022.15
2018-06-23T09:50:44.257Z,1022.10
2018-06-23T09:51:44.252Z,1022.09
2018-06-23T09:52:44.257Z,1022.13
2018-06-23T09:53:44.246Z,1022.15
2018-06-23T09:54:44.248Z,1022.16
2018-06-23T09:55:44.259Z,1022.18
2018-06-23T09:56:44.260Z,1022.20
2018-06-23T09:57:44.246Z,1022.17
2018-06-23T09:58:44.250Z,1022.19
2018-06-23T09:59:44.267Z,1022.17
2018-06-23T10:00:44.248Z,1022.16
2018-06-23T10:01:44.248Z,1022.14
2018-06-23T10:02:44.249Z,1022.12
2018-06-23T10:03:44.463Z,1022.15
2018-06-23T10:04:44.263Z,1022.13
2018-06-23T10:05:44.271Z,1022.16
2018-06-23T10:06:44.278Z,1022.16
2018-06-23T10:07:44.262Z,1022.12
2018-06-23T10:08:44.263Z,1022.13
2018-06-23T10:09:44.262Z,1022.12
2018-06-23T10:10:44.284Z,1022.16
2018-06-23T10:11:44.464Z,1022.14
2018-06-23T10:12:44.453Z,1022.17
2018-06-23T10:13:44.457Z,1022.23
2018-06-23T10:14:44.256Z,1022.21
2018-06-23T10:15:44.268Z,1022.19
2018-06-23T10:16:44.256Z,1022.17
2018-06-23T10:17:44.256Z,1022.20
2018-06-23T10:18:44.267Z,1022.25
2018-06-23T10:19:44.256Z,1022.31
2018-06-23T10:20:44.472Z,1022.28
2018-06-23T10:21:44.261Z,1022.34
2018-06-23T10:22:44.256Z,1022.31
2018-06-23T10:23:44.321Z,1022.29
2018-06-23T10:24:44.256Z,1022.29
2018-06-23T10:25:44.257Z,1022.31
2018-06-23T10:26:44.260Z,1022.35
2018-06-23T10:27:44.259Z,1022.29
2018-06-23T10:28:44.277Z,1022.31
2018-06-23T10:29:44.257Z,1022.27
2018-06-23T10:30:44.261Z,1022.27
2018-06-23T10:31:44.462Z,1022.31
2018-06-23T10:32:44.261Z,1022.28
2018-06-23T10:33:44.290Z,1022.31
2018-06-23T10:34:44.263Z,1022.32
2018-06-23T10:35:44.266Z,1022.33
2018-06-23T10:36:44.262Z,1022.36
2018-06-23T10:37:44.263Z,1022.38
2018-06-23T10:38:44.263Z,1022.35
2018-06-23T10:39:44.264Z,1022.37
2018-06-23T10:40:44.264Z,1022.37
2018-06-23T10:41:44.266Z,1022.36
2018-06-23T10:42:44.265Z,1022.40
2018-06-23T10:43:44.269Z,1022.40
2018-06-23T10:44:44.288Z,1022.34
2018-06-23T10:45:44.268Z,1022.35
2018-06-23T10:46:44.475Z,1022.32
2018-06-23T10:47:44.266Z,1022.31
2018-06-23T10:48:44.277Z,1022.34
2018-06-23T10:49:44.279Z,1022.29
2018-06-23T10:50:44.270Z,1022.30
2018-06-23T10:51:44.269Z,1022.31
2018-06-23T10:52:44.268Z,1022.31
2018-06-23T10:53:44.269Z,1022.29
2018-06-23T10:54:44.269Z,1022.33
2018-06-23T10:55:44.279Z,1022.31
2018-06-23T10:56:44.279Z,1022.31
2018-06-23T10:57:44.490Z,1022.31
2018-06-23T10:58:44.283Z,1022.33
2018-06-23T10:59:44.487Z,1022.29
2018-06-23T11:00:44.271Z,1022.30
2018-06-23T11:01:44.302Z,1022.28
2018-06-23T11:02:44.285Z,1022.26
2018-06-23T11:03:44.275Z,1022.27
2018-06-23T11:04:44.360Z,1022.29
2018-06-23T11:05:44.277Z,1022.30
2018-06-23T11:06:44.277Z,1022.26
2018-06-23T11:07:44.287Z,1022.26
2018-06-23T11:08:44.276Z,1022.25
2018-06-23T11:09:44.280Z,1022.27
2018-06-23T11:10:44.288Z,1022.30
2018-06-23T11:11:44.287Z,1022.25
2018-06-23T11:12:44.280Z,1022.29
2018-06-23T11:13:44.279Z,1022.30
2018-06-23T11:14:44.295Z,1022.31
2018-06-23T11:15:44.298Z,1022.27
2018-06-23T11:16:44.293Z,1022.28
2018-06-23T11:17:44.282Z,1022.31
2018-06-23T11:18:44.284Z,1022.26
2018-06-23T11:19:44.292Z,1022.23
2018-06-23T11:20:44.296Z,1022.29
2018-06-23T11:21:44.296Z,1022.31
2018-06-23T11:22:44.298Z,1022.33
2018-06-23T11:23:44.489Z,1022.34
2018-06-23T11:24:44.322Z,1022.34
2018-06-23T11:25:44.287Z,1022.27
2018-06-23T11:26:44.287Z,1022.25
2018-06-23T11:27:44.288Z,1022.26
2018-06-23T11:28:44.300Z,1022.24
2018-06-23T11:29:44.290Z,1022.28
2018-06-23T11:30:44.292Z,1022.28
2018-06-23T11:31:44.302Z,1022.29
2018-06-23T11:32:44.293Z,1022.32
2018-06-23T11:33:44.297Z,1022.36
2018-06-23T11:34:44.301Z,1022.33
2018-06-23T11:35:44.295Z,1022.34
2018-06-23T11:36:44.297Z,1022.34
2018-06-23T11:37:44.296Z,1022.34
2018-06-23T11:38:44.296Z,1022.36
2018-06-23T11:39:44.296Z,1022.37
2018-06-23T11:40:44.300Z,1022.35
2018-06-23T11:41:44.303Z,1022.35
2018-06-23T11:42:44.299Z,1022.39
2018-06-23T11:43:44.305Z,1022.36
2018-06-23T11:44:44.328Z,1022.40
2018-06-23T11:45:44.300Z,1022.38
2018-06-23T11:46:44.313Z,1022.41
2018-06-23T11:47:44.313Z,1022.36
2018-06-23T11:48:44.305Z,1022.41
2018-06-23T11:49:44.306Z,1022.41
2018-06-23T11:50:44.319Z,1022.40
2018-06-23T11:51:44.309Z,1022.43
2018-06-23T11:52:44.305Z,1022.42
2018-06-23T11:53:44.316Z,1022.39
2018-06-23T11:54:44.308Z,1022.44
2018-06-23T11:55:44.309Z,1022.45
2018-06-23T11:56:44.309Z,1022.43
2018-06-23T11:57:44.323Z,1022.44
2018-06-23T11:58:44.309Z,1022.43
2018-06-23T11:59:44.308Z,1022.42
2018-06-23T12:00:44.524Z,1022.42
2018-06-23T12:01:44.325Z,1022.39
2018-06-23T12:02:44.310Z,1022.37
2018-06-23T12:03:44.311Z,1022.38
2018-06-23T12:04:44.315Z,1022.37
2018-06-23T12:05:44.313Z,1022.35